Vandalia, Illinois
Current Conditions -  °F | °C
As of 4:35 PM on Friday 31 Oct 2014 (Local Time) from KSLO Reporting Station
Broken Clouds Broken Clouds  
Wind Chill: 39°   Ceiling: 6000
Heat Index: 46°   Visibility: 10mi
Dew Point: 25°   Wind: 17mph
Humidity: 44%   Direction: 340°NNW
Pressure: 30.24"   Gusts: 26mph
Location:  38.96°N, 89.1°W
Report Text: KSLO 312135Z AUTO 34015G23KT 10SM BKN060 08/M04 A3024 RMK AO2 T00781039
Loading
Personal Weather Stations






























Interactive Weather Map
Tropical Storm Tracking
New forecast layout! Learn more

10-Day Weather Forecast

Advertisements
Track Severe Weather on mobile